Time,TemperatureF,DewpointF,PressureIn,WindDirection,WindDirectionDegrees,WindSpeedMPH,WindSpeedGustMPH,Humidity,HourlyPrecipIn,Conditions,Clouds,dailyrainin,SoftwareType,DateUTC
2013-04-30 00:01:00,66.0,32.0,-100.00,NW,320,4.0,11.0,27,0.00,,,-99.99,,2013-04-30 06:01:00,
2013-04-30 00:11:00,66.0,32.0,-100.00,North,5,6.0,14.0,28,0.00,,,-99.99,,2013-04-30 06:11:00,
2013-04-30 00:21:00,66.0,32.0,-100.00,North,5,6.0,11.0,28,0.00,,,-99.99,,2013-04-30 06:21:00,
2013-04-30 00:31:00,69.0,34.0,-100.00,North,5,8.0,16.0,27,0.00,,,-99.99,,2013-04-30 06:31:00,
2013-04-30 00:41:00,68.0,33.0,-100.00,North,0,4.0,10.0,27,0.00,,,-99.99,,2013-04-30 06:41:00,
2013-04-30 00:52:00,67.0,32.0,-100.00,North,10,9.0,13.0,27,0.00,,,-99.99,,2013-04-30 06:52:00,
2013-04-30 01:01:00,67.0,32.0,-100.00,North,5,7.0,14.0,26,0.00,,,-99.99,,2013-04-30 07:01:00,
2013-04-30 01:11:00,67.0,32.0,-100.00,North,5,7.0,12.0,26,0.00,,,-99.99,,2013-04-30 07:11:00,
2013-04-30 01:21:00,66.0,32.0,-100.00,North,0,7.0,10.0,27,0.00,,,-99.99,,2013-04-30 07:21:00,
2013-04-30 01:31:00,66.0,32.0,-100.00,NNE,25,2.0,9.0,27,0.00,,,-99.99,,2013-04-30 07:31:00,
2013-04-30 01:41:00,65.0,31.0,-100.00,NE,35,4.0,6.0,27,0.00,,,-99.99,,2013-04-30 07:41:00,
2013-04-30 01:52:00,64.0,31.0,-100.00,West,270,2.0,6.0,28,0.00,,,-99.99,,2013-04-30 07:52:00,
2013-04-30 02:02:00,64.0,31.0,-100.00,South,180,2.0,9.0,28,0.00,,,-99.99,,2013-04-30 08:02:00,
2013-04-30 02:11:00,64.0,31.0,-100.00,WSW,245,6.0,7.0,28,0.00,,,-99.99,,2013-04-30 08:11:00,
2013-04-30 02:21:00,63.0,31.0,-100.00,NE,40,1.0,7.0,28,0.00,,,-99.99,,2013-04-30 08:21:00,
2013-04-30 02:32:00,62.0,30.0,-100.00,NE,35,3.0,5.0,29,0.00,,,-99.99,,2013-04-30 08:32:00,
2013-04-30 02:42:00,61.0,30.0,-100.00,East,95,2.0,6.0,30,0.00,,,-99.99,,2013-04-30 08:42:00,
2013-04-30 02:52:00,60.0,30.0,-100.00,SSW,200,0.0,5.0,31,0.00,,,-99.99,,2013-04-30 08:52:00,
2013-04-30 03:01:00,60.0,30.0,-100.00,SE,130,1.0,3.0,32,0.00,,,-99.99,,2013-04-30 09:01:00,
2013-04-30 03:11:00,60.0,30.0,-100.00,East,95,1.0,4.0,32,0.00,,,-99.99,,2013-04-30 09:11:00,
2013-04-30 03:22:00,60.0,31.0,-100.00,East,90,2.0,9.0,32,0.00,,,-99.99,,2013-04-30 09:22:00,
2013-04-30 03:33:00,59.0,30.0,-100.00,NNE,20,2.0,2.0,33,0.00,,,-99.99,,2013-04-30 09:33:00,
2013-04-30 03:43:00,59.0,30.0,-100.00,East,85,1.0,5.0,33,0.00,,,-99.99,,2013-04-30 09:43:00,
2013-04-30 03:52:00,58.0,31.0,-100.00,East,90,3.0,6.0,34,0.00,,,-99.99,,2013-04-30 09:52:00,
2013-04-30 04:03:00,58.0,30.0,-100.00,East,100,3.0,4.0,35,0.00,,,-99.99,,2013-04-30 10:03:00,
2013-04-30 04:11:00,57.0,30.0,-100.00,East,80,1.0,6.0,35,0.00,,,-99.99,,2013-04-30 10:11:00,
2013-04-30 04:22:00,56.0,30.0,-100.00,SSE,160,3.0,5.0,37,0.00,,,-99.99,,2013-04-30 10:22:00,
2013-04-30 04:32:00,58.0,32.0,-100.00,SE,145,6.0,11.0,36,0.00,,,-99.99,,2013-04-30 10:32:00,
2013-04-30 04:41:00,59.0,32.0,-100.00,ESE,120,1.0,8.0,36,0.00,,,-99.99,,2013-04-30 10:41:00,
2013-04-30 04:52:00,58.0,31.0,-100.00,SE,135,6.0,8.0,35,0.00,,,-99.99,,2013-04-30 10:52:00,
2013-04-30 05:01:00,59.0,32.0,-100.00,SE,135,3.0,8.0,35,0.00,,,-99.99,,2013-04-30 11:01:00,
2013-04-30 05:11:00,58.0,31.0,-100.00,ESE,110,6.0,8.0,35,0.00,,,-99.99,,2013-04-30 11:11:00,
2013-04-30 05:21:00,58.0,31.0,-100.00,SSE,155,4.0,7.0,36,0.00,,,-99.99,,2013-04-30 11:21:00,
2013-04-30 05:31:00,58.0,31.0,-100.00,SSE,160,5.0,8.0,36,0.00,,,-99.99,,2013-04-30 11:31:00,
2013-04-30 05:42:00,57.0,31.0,-100.00,SSW,205,8.0,16.0,37,0.00,,,-99.99,,2013-04-30 11:42:00,
2013-04-30 05:51:00,56.0,31.0,-100.00,SSW,195,7.0,12.0,38,0.00,,,-99.99,,2013-04-30 11:51:00,
2013-04-30 06:01:00,47.0,28.0,-100.00,SW,235,12.0,30.0,46,0.00,,,-99.99,,2013-04-30 12:01:00,
2013-04-30 06:11:00,45.0,31.0,-100.00,West,260,9.0,17.0,56,0.00,,,-99.99,,2013-04-30 12:11:00,
2013-04-30 06:21:00,45.0,33.0,-100.00,SSW,205,5.0,10.0,64,0.00,,,-99.99,,2013-04-30 12:21:00,
2013-04-30 06:31:00,44.0,35.0,-100.00,SSE,150,2.0,6.0,69,0.00,,,-99.99,,2013-04-30 12:31:00,
2013-04-30 06:41:00,44.0,36.0,-100.00,West,280,4.0,6.0,74,0.00,,,-99.99,,2013-04-30 12:41:00,
2013-04-30 06:51:00,44.0,37.0,-100.00,WSW,250,4.0,7.0,76,0.00,,,-99.99,,2013-04-30 12:51:00,
2013-04-30 07:01:00,43.0,37.0,-100.00,WNW,300,6.0,7.0,78,0.00,,,-99.99,,2013-04-30 13:01:00,
2013-04-30 07:11:00,43.0,37.0,-100.00,NW,310,6.0,9.0,79,0.00,,,-99.99,,2013-04-30 13:11:00,
2013-04-30 07:21:00,43.0,38.0,-100.00,NNW,330,7.0,10.0,80,0.00,,,-99.99,,2013-04-30 13:21:00,
2013-04-30 07:31:00,43.0,38.0,-100.00,NNW,330,7.0,11.0,80,0.00,,,-99.99,,2013-04-30 13:31:00,
2013-04-30 07:41:00,43.0,38.0,-100.00,NNW,335,7.0,10.0,81,0.00,,,-99.99,,2013-04-30 13:41:00,
2013-04-30 07:51:00,44.0,38.0,-100.00,NW,315,9.0,11.0,80,0.00,,,-99.99,,2013-04-30 13:51:00,
2013-04-30 08:02:00,44.0,38.0,-100.00,NW,315,9.0,11.0,80,0.00,,,-99.99,,2013-04-30 14:02:00,
2013-04-30 08:11:00,45.0,38.0,-100.00,WNW,290,8.0,12.0,77,0.00,,,-99.99,,2013-04-30 14:11:00,
2013-04-30 08:21:00,45.0,38.0,-100.00,NW,325,9.0,16.0,77,0.00,,,-99.99,,2013-04-30 14:21:00,
2013-04-30 08:31:00,46.0,39.0,-100.00,NW,310,3.0,13.0,75,0.10,,,-99.99,,2013-04-30 14:31:00,
2013-04-30 08:41:00,47.0,38.0,-100.00,NW,315,8.0,14.0,71,0.00,,,-99.99,,2013-04-30 14:41:00,
2013-04-30 08:52:00,48.0,38.0,-100.00,West,270,5.0,10.0,69,0.00,,,-99.99,,2013-04-30 14:52:00,
2013-04-30 09:01:00,49.0,39.0,-100.00,SW,230,4.0,7.0,67,0.00,,,-99.99,,2013-04-30 15:01:00,
2013-04-30 09:11:00,50.0,39.0,-100.00,West,275,6.0,10.0,66,0.00,,,-99.99,,2013-04-30 15:11:00,
2013-04-30 09:21:00,50.0,39.0,-100.00,West,275,6.0,10.0,66,0.00,,,-99.99,,2013-04-30 15:21:00,
2013-04-30 09:32:00,51.0,39.0,-100.00,NNW,330,6.0,10.0,63,0.00,,,-99.99,,2013-04-30 15:32:00,
2013-04-30 09:42:00,51.0,39.0,-100.00,NNW,330,6.0,10.0,63,0.00,,,-99.99,,2013-04-30 15:42:00,
2013-04-30 09:52:00,51.0,38.0,-100.00,WNW,295,6.0,11.0,62,0.00,,,-99.99,,2013-04-30 15:52:00,
2013-04-30 10:02:00,53.0,39.0,-100.00,SW,220,3.0,9.0,59,0.00,,,-99.99,,2013-04-30 16:02:00,
2013-04-30 10:12:00,52.0,38.0,-100.00,NW,320,4.0,9.0,59,0.00,,,-99.99,,2013-04-30 16:12:00,
2013-04-30 10:22:00,53.0,39.0,-100.00,SW,220,6.0,9.0,58,0.00,,,-99.99,,2013-04-30 16:22:00,
2013-04-30 10:33:00,52.0,38.0,-100.00,West,270,7.0,11.0,59,0.00,,,-99.99,,2013-04-30 16:33:00,
2013-04-30 10:42:00,51.0,38.0,-100.00,SSW,200,6.0,8.0,59,0.00,,,-99.99,,2013-04-30 16:42:00,
2013-04-30 10:52:00,52.0,38.0,-100.00,SW,235,7.0,9.0,59,0.00,,,-99.99,,2013-04-30 16:52:00,
2013-04-30 11:02:00,52.0,38.0,-100.00,West,270,4.0,10.0,60,0.00,,,-99.99,,2013-04-30 17:02:00,
2013-04-30 11:12:00,52.0,38.0,-100.00,SSW,200,7.0,11.0,59,0.00,,,-99.99,,2013-04-30 17:12:00,
2013-04-30 11:20:00,53.0,39.0,-100.00,South,185,5.0,11.0,59,0.00,,,-99.99,,2013-04-30 17:20:00,
2013-04-30 11:22:00,52.0,38.0,-100.00,SSW,210,7.0,14.0,59,0.00,,,-99.99,,2013-04-30 17:22:00,
2013-04-30 11:32:00,53.0,39.0,-100.00,South,185,5.0,11.0,59,0.00,,,-99.99,,2013-04-30 17:32:00,
2013-04-30 11:42:00,53.0,39.0,-100.00,South,185,5.0,11.0,59,0.00,,,-99.99,,2013-04-30 17:42:00,
2013-04-30 11:52:00,53.0,39.0,-100.00,South,185,5.0,11.0,59,0.00,,,-99.99,,2013-04-30 17:52:00,
2013-04-30 12:01:00,53.0,39.0,-100.00,South,185,5.0,11.0,59,0.00,,,-99.99,,2013-04-30 18:01:00,
2013-04-30 12:11:00,53.0,39.0,-100.00,South,185,5.0,11.0,59,0.00,,,-99.99,,2013-04-30 18:11:00,
2013-04-30 15:11:00,54.0,40.0,-100.00,SSW,200,4.0,-999.0,60,0.00,,,-99.99,,2013-04-30 21:11:00,
2013-04-30 15:22:00,54.0,40.0,-100.00,SSW,200,6.0,11.0,60,0.00,,,-99.99,,2013-04-30 21:22:00,
2013-04-30 15:32:00,55.0,41.0,-100.00,WNW,285,4.0,10.0,59,0.00,,,-99.99,,2013-04-30 21:32:00,
2013-04-30 15:42:00,54.0,40.0,-100.00,South,185,4.0,7.0,59,0.00,,,-99.99,,2013-04-30 21:42:00,
2013-04-30 15:53:00,54.0,41.0,-100.00,West,270,4.0,9.0,60,0.00,,,-99.99,,2013-04-30 21:53:00,
2013-04-30 16:02:00,55.0,41.0,-100.00,West,280,4.0,9.0,59,0.00,,,-99.99,,2013-04-30 22:02:00,
2013-04-30 16:12:00,55.0,41.0,-100.00,West,265,4.0,9.0,59,0.00,,,-99.99,,2013-04-30 22:12:00,
2013-04-30 16:22:00,55.0,41.0,-100.00,WNW,290,4.0,7.0,59,0.00,,,-99.99,,2013-04-30 22:22:00,
2013-04-30 16:32:00,55.0,41.0,-100.00,WSW,245,5.0,11.0,60,0.00,,,-99.99,,2013-04-30 22:32:00,
2013-04-30 16:41:00,55.0,41.0,-100.00,WNW,300,3.0,8.0,60,0.00,,,-99.99,,2013-04-30 22:41:00,
2013-04-30 16:52:00,55.0,41.0,-100.00,NW,315,7.0,11.0,60,0.00,,,-99.99,,2013-04-30 22:52:00,
2013-04-30 17:02:00,55.0,42.0,-100.00,WNW,300,6.0,10.0,60,0.00,,,-99.99,,2013-04-30 23:02:00,
2013-04-30 17:11:00,55.0,42.0,-100.00,West,280,5.0,7.0,60,0.00,,,-99.99,,2013-04-30 23:11:00,
2013-04-30 17:21:00,55.0,42.0,-100.00,WSW,245,5.0,9.0,60,0.00,,,-99.99,,2013-04-30 23:21:00,
2013-04-30 17:32:00,55.0,42.0,-100.00,NW,305,3.0,6.0,60,0.00,,,-99.99,,2013-04-30 23:32:00,
2013-04-30 17:42:00,55.0,42.0,-100.00,WNW,300,7.0,11.0,60,0.00,,,-99.99,,2013-04-30 23:42:00,
2013-04-30 17:52:00,56.0,42.0,-100.00,WNW,295,9.0,14.0,59,0.00,,,-99.99,,2013-04-30 23:52:00,
2013-04-30 18:01:00,55.0,41.0,-100.00,WNW,290,6.0,11.0,59,0.00,,,-99.99,,2013-05-01 00:01:00,
2013-04-30 18:11:00,55.0,41.0,-100.00,WNW,295,6.0,14.0,59,0.00,,,-99.99,,2013-05-01 00:11:00,
2013-04-30 18:21:00,55.0,40.0,-100.00,West,275,4.0,11.0,58,0.00,,,-99.99,,2013-05-01 00:21:00,
2013-04-30 18:32:00,54.0,40.0,-100.00,West,270,7.0,10.0,57,0.00,,,-99.99,,2013-05-01 00:32:00,
2013-04-30 18:42:00,54.0,40.0,-100.00,WSW,255,6.0,11.0,58,0.00,,,-99.99,,2013-05-01 00:42:00,
2013-04-30 18:51:00,53.0,39.0,-100.00,WSW,240,6.0,11.0,58,0.00,,,-99.99,,2013-05-01 00:51:00,
2013-04-30 19:01:00,53.0,39.0,-100.00,WSW,240,5.0,8.0,58,0.00,,,-99.99,,2013-05-01 01:01:00,
2013-04-30 19:11:00,53.0,39.0,-100.00,WSW,240,6.0,9.0,58,0.00,,,-99.99,,2013-05-01 01:11:00,
2013-04-30 19:21:00,53.0,39.0,-100.00,WSW,255,4.0,7.0,58,0.00,,,-99.99,,2013-05-01 01:21:00,
2013-04-30 19:31:00,53.0,39.0,-100.00,SSW,205,6.0,6.0,59,0.00,,,-99.99,,2013-05-01 01:31:00,
2013-04-30 19:41:00,53.0,39.0,-100.00,SW,235,6.0,9.0,59,0.00,,,-99.99,,2013-05-01 01:41:00,
2013-04-30 19:52:00,53.0,39.0,-100.00,SW,230,3.0,6.0,59,0.00,,,-99.99,,2013-05-01 01:52:00,
2013-04-30 20:02:00,52.0,39.0,-100.00,SW,225,4.0,9.0,60,0.00,,,-99.99,,2013-05-01 02:02:00,
2013-04-30 20:11:00,52.0,39.0,-100.00,SW,215,7.0,9.0,60,0.00,,,-99.99,,2013-05-01 02:11:00,
2013-04-30 20:21:00,52.0,39.0,-100.00,SSW,200,6.0,11.0,62,0.00,,,-99.99,,2013-05-01 02:21:00,
2013-04-30 20:32:00,51.0,39.0,-100.00,SSW,210,7.0,9.0,62,0.00,,,-99.99,,2013-05-01 02:32:00,
2013-04-30 20:42:00,51.0,39.0,-100.00,SSW,195,4.0,8.0,62,0.00,,,-99.99,,2013-05-01 02:42:00,
2013-04-30 20:51:00,51.0,39.0,-100.00,South,190,4.0,6.0,62,0.00,,,-99.99,,2013-05-01 02:51:00,
2013-04-30 21:01:00,51.0,39.0,-100.00,SSW,195,7.0,11.0,62,0.00,,,-99.99,,2013-05-01 03:01:00,
2013-04-30 21:11:00,49.0,40.0,-100.00,SW,215,16.0,30.0,70,0.00,,,-99.99,,2013-05-01 03:11:00,
2013-04-30 21:21:00,42.0,40.0,-100.00,SSW,195,15.0,25.0,94,0.00,,,-99.99,,2013-05-01 03:21:00,
2013-04-30 21:33:00,40.0,40.0,-100.00,SSW,205,13.0,26.0,97,0.00,,,-99.99,,2013-05-01 03:33:00,
2013-04-30 21:42:00,39.0,39.0,-100.00,SSW,205,11.0,20.0,98,0.00,,,-99.99,,2013-05-01 03:42:00,
2013-04-30 21:52:00,39.0,39.0,-100.00,SSW,205,7.0,20.0,98,0.00,,,-99.99,,2013-05-01 03:52:00,
2013-04-30 22:03:00,39.0,38.0,-100.00,SSE,165,6.0,12.0,98,0.00,,,-99.99,,2013-05-01 04:03:00,
2013-04-30 22:12:00,38.0,38.0,-100.00,South,170,8.0,14.0,97,0.00,,,-99.99,,2013-05-01 04:12:00,
2013-04-30 22:22:00,38.0,37.0,-100.00,SW,225,4.0,11.0,97,0.00,,,-99.99,,2013-05-01 04:22:00,
2013-04-30 22:32:00,38.0,37.0,-100.00,SSE,160,4.0,9.0,97,0.00,,,-99.99,,2013-05-01 04:32:00,
2013-04-30 22:42:00,37.0,36.0,-100.00,South,190,7.0,11.0,97,0.00,,,-99.99,,2013-05-01 04:42:00,
2013-04-30 22:52:00,36.0,35.0,-100.00,South,180,7.0,14.0,97,0.10,,,-99.99,,2013-05-01 04:52:00,
2013-04-30 23:02:00,35.0,35.0,-100.00,SSW,205,4.0,7.0,97,0.10,,,-99.99,,2013-05-01 05:02:00,
2013-04-30 23:11:00,35.0,35.0,-100.00,SSW,205,4.0,7.0,97,0.10,,,-99.99,,2013-05-01 05:11:00,
2013-04-30 23:21:00,35.0,34.0,-100.00,NE,55,2.0,4.0,98,0.00,,,-99.99,,2013-05-01 05:21:00,
2013-04-30 23:32:00,35.0,34.0,-100.00,ESE,105,3.0,6.0,98,0.00,,,-99.99,,2013-05-01 05:32:00,
2013-04-30 23:41:00,35.0,35.0,-100.00,ESE,105,2.0,4.0,98,0.00,,,-99.99,,2013-05-01 05:41:00,
2013-04-30 23:52:00,35.0,35.0,-100.00,ESE,105,2.0,5.0,98,0.00,,,-99.99,,2013-05-01 05:52:00,